sensor_id;sensor_type;location;lat;lon;timestamp;temperature;humidity
13721;DHT22;6932;51.438;5.470;2022-10-15T00:00:35;19.70;95.80
13721;DHT22;6932;51.438;5.470;2022-10-15T00:03:01;19.70;95.80
13721;DHT22;6932;51.438;5.470;2022-10-15T00:05:26;19.70;95.80
13721;DHT22;6932;51.438;5.470;2022-10-15T00:07:52;19.70;95.80
13721;DHT22;6932;51.438;5.470;2022-10-15T00:10:19;19.70;95.80
13721;DHT22;6932;51.438;5.470;2022-10-15T00:12:45;19.70;95.80
13721;DHT22;6932;51.438;5.470;2022-10-15T00:15:11;19.70;95.80
13721;DHT22;6932;51.438;5.470;2022-10-15T00:17:38;19.60;95.80
13721;DHT22;6932;51.438;5.470;2022-10-15T00:20:07;19.60;95.80
13721;DHT22;6932;51.438;5.470;2022-10-15T00:22:34;19.60;95.80
13721;DHT22;6932;51.438;5.470;2022-10-15T00:25:01;19.60;95.90
13721;DHT22;6932;51.438;5.470;2022-10-15T00:27:26;19.50;95.80
13721;DHT22;6932;51.438;5.470;2022-10-15T00:29:52;19.50;95.90
13721;DHT22;6932;51.438;5.470;2022-10-15T00:32:18;19.50;95.90
13721;DHT22;6932;51.438;5.470;2022-10-15T00:34:44;19.60;96.00
13721;DHT22;6932;51.438;5.470;2022-10-15T00:37:10;19.50;96.00
13721;DHT22;6932;51.438;5.470;2022-10-15T00:39:36;19.50;96.00
13721;DHT22;6932;51.438;5.470;2022-10-15T00:42:02;19.50;96.00
13721;DHT22;6932;51.438;5.470;2022-10-15T00:47:13;19.50;96.10
13721;DHT22;6932;51.438;5.470;2022-10-15T00:52:36;19.50;96.10
13721;DHT22;6932;51.438;5.470;2022-10-15T00:55:15;19.50;96.10
13721;DHT22;6932;51.438;5.470;2022-10-15T00:57:48;19.50;96.20
13721;DHT22;6932;51.438;5.470;2022-10-15T01:00:16;19.50;96.20
13721;DHT22;6932;51.438;5.470;2022-10-15T01:02:44;19.50;96.20
13721;DHT22;6932;51.438;5.470;2022-10-15T01:05:11;19.50;96.20
13721;DHT22;6932;51.438;5.470;2022-10-15T01:07:39;19.50;96.20
13721;DHT22;6932;51.438;5.470;2022-10-15T01:10:06;19.50;96.30
13721;DHT22;6932;51.438;5.470;2022-10-15T01:18:39;19.50;96.30
13721;DHT22;6932;51.438;5.470;2022-10-15T01:21:18;19.50;96.40
13721;DHT22;6932;51.438;5.470;2022-10-15T01:24:23;19.50;96.30
13721;DHT22;6932;51.438;5.470;2022-10-15T01:27:34;19.50;96.30
13721;DHT22;6932;51.438;5.470;2022-10-15T01:30:23;19.50;96.30
13721;DHT22;6932;51.438;5.470;2022-10-15T01:35:48;19.60;96.30
13721;DHT22;6932;51.438;5.470;2022-10-15T01:38:33;19.60;96.30
13721;DHT22;6932;51.438;5.470;2022-10-15T01:41:24;19.50;96.30
13721;DHT22;6932;51.438;5.470;2022-10-15T01:44:03;19.50;96.60
13721;DHT22;6932;51.438;5.470;2022-10-15T01:46:45;19.60;96.30
13721;DHT22;6932;51.438;5.470;2022-10-15T01:49:17;19.60;96.30
13721;DHT22;6932;51.438;5.470;2022-10-15T01:51:47;19.60;96.30
13721;DHT22;6932;51.438;5.470;2022-10-15T01:54:16;19.60;96.30
13721;DHT22;6932;51.438;5.470;2022-10-15T01:56:45;19.60;96.30
13721;DHT22;6932;51.438;5.470;2022-10-15T01:59:18;19.60;96.30
13721;DHT22;6932;51.438;5.470;2022-10-15T02:01:48;19.60;96.30
13721;DHT22;6932;51.438;5.470;2022-10-15T02:04:23;19.60;96.30
13721;DHT22;6932;51.438;5.470;2022-10-15T02:09:55;19.60;96.30
13721;DHT22;6932;51.438;5.470;2022-10-15T02:15:51;19.60;96.30
13721;DHT22;6932;51.438;5.470;2022-10-15T02:18:33;19.60;96.30
13721;DHT22;6932;51.438;5.470;2022-10-15T02:21:11;19.60;96.30
13721;DHT22;6932;51.438;5.470;2022-10-15T02:23:56;19.60;96.30
13721;DHT22;6932;51.438;5.470;2022-10-15T02:26:47;19.60;96.30
13721;DHT22;6932;51.438;5.470;2022-10-15T02:29:19;19.70;96.60
13721;DHT22;6932;51.438;5.470;2022-10-15T02:31:48;19.70;96.30
13721;DHT22;6932;51.438;5.470;2022-10-15T02:34:18;19.70;96.40
13721;DHT22;6932;51.438;5.470;2022-10-15T02:36:46;19.70;96.40
13721;DHT22;6932;51.438;5.470;2022-10-15T02:39:16;19.70;96.40
13721;DHT22;6932;51.438;5.470;2022-10-15T02:41:47;19.70;96.40
13721;DHT22;6932;51.438;5.470;2022-10-15T02:44:13;19.70;96.40
13721;DHT22;6932;51.438;5.470;2022-10-15T02:46:39;19.70;96.40
13721;DHT22;6932;51.438;5.470;2022-10-15T02:49:05;19.70;96.40
13721;DHT22;6932;51.438;5.470;2022-10-15T02:51:32;19.70;96.40
13721;DHT22;6932;51.438;5.470;2022-10-15T02:54:00;19.70;96.40
13721;DHT22;6932;51.438;5.470;2022-10-15T02:56:32;19.70;96.40
13721;DHT22;6932;51.438;5.470;2022-10-15T02:58:58;19.70;96.40
13721;DHT22;6932;51.438;5.470;2022-10-15T03:01:24;19.70;96.40
13721;DHT22;6932;51.438;5.470;2022-10-15T03:03:50;19.70;96.40
13721;DHT22;6932;51.438;5.470;2022-10-15T03:06:16;19.70;96.40
13721;DHT22;6932;51.438;5.470;2022-10-15T03:08:42;19.70;96.40
13721;DHT22;6932;51.438;5.470;2022-10-15T03:11:08;19.70;96.50
13721;DHT22;6932;51.438;5.470;2022-10-15T03:13:35;19.70;96.50
13721;DHT22;6932;51.438;5.470;2022-10-15T03:16:04;19.70;96.50
13721;DHT22;6932;51.438;5.470;2022-10-15T03:18:31;19.70;96.50
13721;DHT22;6932;51.438;5.470;2022-10-15T03:20:57;19.70;96.50
13721;DHT22;6932;51.438;5.470;2022-10-15T03:23:24;19.70;96.50
13721;DHT22;6932;51.438;5.470;2022-10-15T03:25:49;19.70;96.50
13721;DHT22;6932;51.438;5.470;2022-10-15T03:28:17;19.70;96.50
13721;DHT22;6932;51.438;5.470;2022-10-15T03:30:42;19.70;96.50
13721;DHT22;6932;51.438;5.470;2022-10-15T03:33:08;19.70;96.60
13721;DHT22;6932;51.438;5.470;2022-10-15T03:35:35;19.70;96.60
13721;DHT22;6932;51.438;5.470;2022-10-15T03:38:01;19.70;96.60
13721;DHT22;6932;51.438;5.470;2022-10-15T03:40:27;19.80;96.60
13721;DHT22;6932;51.438;5.470;2022-10-15T03:42:53;19.70;96.60
13721;DHT22;6932;51.438;5.470;2022-10-15T03:45:21;19.70;96.60
13721;DHT22;6932;51.438;5.470;2022-10-15T03:47:48;19.70;96.80
13721;DHT22;6932;51.438;5.470;2022-10-15T03:50:14;19.80;96.60
13721;DHT22;6932;51.438;5.470;2022-10-15T03:52:40;19.80;96.60
13721;DHT22;6932;51.438;5.470;2022-10-15T03:55:06;19.80;96.60
13721;DHT22;6932;51.438;5.470;2022-10-15T03:57:32;19.80;96.60
13721;DHT22;6932;51.438;5.470;2022-10-15T03:59:58;19.80;96.60
13721;DHT22;6932;51.438;5.470;2022-10-15T04:02:24;19.80;96.60
13721;DHT22;6932;51.438;5.470;2022-10-15T04:04:53;19.80;96.60
13721;DHT22;6932;51.438;5.470;2022-10-15T04:07:20;19.80;96.60
13721;DHT22;6932;51.438;5.470;2022-10-15T04:09:46;19.80;96.60
13721;DHT22;6932;51.438;5.470;2022-10-15T04:12:12;19.80;96.60
13721;DHT22;6932;51.438;5.470;2022-10-15T04:14:39;19.80;96.60
13721;DHT22;6932;51.438;5.470;2022-10-15T04:17:05;19.80;96.70
13721;DHT22;6932;51.438;5.470;2022-10-15T04:19:32;19.80;96.70
13721;DHT22;6932;51.438;5.470;2022-10-15T04:21:58;19.80;96.70
13721;DHT22;6932;51.438;5.470;2022-10-15T04:24:24;19.80;96.70
13721;DHT22;6932;51.438;5.470;2022-10-15T04:26:50;19.80;96.70
13721;DHT22;6932;51.438;5.470;2022-10-15T04:29:16;19.80;96.70
13721;DHT22;6932;51.438;5.470;2022-10-15T04:31:42;19.80;96.80
13721;DHT22;6932;51.438;5.470;2022-10-15T04:34:09;19.80;96.80
13721;DHT22;6932;51.438;5.470;2022-10-15T04:36:34;19.80;96.80
13721;DHT22;6932;51.438;5.470;2022-10-15T04:39:01;19.80;96.80
13721;DHT22;6932;51.438;5.470;2022-10-15T04:41:28;19.80;96.80
13721;DHT22;6932;51.438;5.470;2022-10-15T04:43:55;19.80;96.80
13721;DHT22;6932;51.438;5.470;2022-10-15T04:46:21;19.80;96.80
13721;DHT22;6932;51.438;5.470;2022-10-15T04:48:48;19.80;96.80
13721;DHT22;6932;51.438;5.470;2022-10-15T04:51:16;19.80;96.80
13721;DHT22;6932;51.438;5.470;2022-10-15T04:53:45;19.80;96.80
13721;DHT22;6932;51.438;5.470;2022-10-15T04:56:13;19.80;96.80
13721;DHT22;6932;51.438;5.470;2022-10-15T04:58:43;19.90;96.80
13721;DHT22;6932;51.438;5.470;2022-10-15T05:01:12;19.90;96.80
13721;DHT22;6932;51.438;5.470;2022-10-15T05:03:41;19.90;96.80
13721;DHT22;6932;51.438;5.470;2022-10-15T05:06:14;19.90;96.70
13721;DHT22;6932;51.438;5.470;2022-10-15T05:08:42;19.90;96.70
13721;DHT22;6932;51.438;5.470;2022-10-15T05:11:18;19.90;96.70
13721;DHT22;6932;51.438;5.470;2022-10-15T05:13:47;19.90;96.70
13721;DHT22;6932;51.438;5.470;2022-10-15T05:16:16;19.90;96.70
13721;DHT22;6932;51.438;5.470;2022-10-15T05:18:45;19.90;96.70
13721;DHT22;6932;51.438;5.470;2022-10-15T05:21:12;19.90;96.70
13721;DHT22;6932;51.438;5.470;2022-10-15T05:23:40;19.90;96.60
13721;DHT22;6932;51.438;5.470;2022-10-15T05:26:09;19.90;96.60
13721;DHT22;6932;51.438;5.470;2022-10-15T05:28:37;19.90;96.60
13721;DHT22;6932;51.438;5.470;2022-10-15T05:31:17;19.90;96.60
13721;DHT22;6932;51.438;5.470;2022-10-15T05:33:49;19.90;96.50
13721;DHT22;6932;51.438;5.470;2022-10-15T05:36:24;19.90;96.40
13721;DHT22;6932;51.438;5.470;2022-10-15T05:38:55;19.90;96.30
13721;DHT22;6932;51.438;5.470;2022-10-15T05:41:22;19.90;96.30
13721;DHT22;6932;51.438;5.470;2022-10-15T05:43:50;19.90;96.30
13721;DHT22;6932;51.438;5.470;2022-10-15T05:46:17;19.90;96.30
13721;DHT22;6932;51.438;5.470;2022-10-15T05:49:10;19.90;96.30
13721;DHT22;6932;51.438;5.470;2022-10-15T05:51:36;19.90;96.30
13721;DHT22;6932;51.438;5.470;2022-10-15T05:54:02;19.90;96.20
13721;DHT22;6932;51.438;5.470;2022-10-15T05:56:28;19.90;96.20
13721;DHT22;6932;51.438;5.470;2022-10-15T05:58:53;19.90;96.20
13721;DHT22;6932;51.438;5.470;2022-10-15T06:01:20;19.90;96.20
13721;DHT22;6932;51.438;5.470;2022-10-15T06:03:46;19.90;96.20
13721;DHT22;6932;51.438;5.470;2022-10-15T06:06:17;19.90;96.20
13721;DHT22;6932;51.438;5.470;2022-10-15T06:08:44;19.90;96.20
13721;DHT22;6932;51.438;5.470;2022-10-15T06:11:10;19.90;96.20
13721;DHT22;6932;51.438;5.470;2022-10-15T06:13:37;19.90;96.20
13721;DHT22;6932;51.438;5.470;2022-10-15T06:16:04;19.90;96.20
13721;DHT22;6932;51.438;5.470;2022-10-15T06:18:30;19.90;96.20
13721;DHT22;6932;51.438;5.470;2022-10-15T06:20:56;19.80;96.20
13721;DHT22;6932;51.438;5.470;2022-10-15T06:23:22;19.80;96.50
13721;DHT22;6932;51.438;5.470;2022-10-15T06:25:49;19.80;96.20
13721;DHT22;6932;51.438;5.470;2022-10-15T06:28:15;19.80;96.20
13721;DHT22;6932;51.438;5.470;2022-10-15T06:30:41;19.80;96.20
13721;DHT22;6932;51.438;5.470;2022-10-15T06:33:07;19.80;96.20
13721;DHT22;6932;51.438;5.470;2022-10-15T06:35:34;19.80;96.20
13721;DHT22;6932;51.438;5.470;2022-10-15T06:38:04;19.80;96.20
13721;DHT22;6932;51.438;5.470;2022-10-15T06:40:31;19.80;96.20
13721;DHT22;6932;51.438;5.470;2022-10-15T06:43:07;19.80;96.20
13721;DHT22;6932;51.438;5.470;2022-10-15T06:45:38;19.80;96.20
13721;DHT22;6932;51.438;5.470;2022-10-15T06:48:06;19.80;96.20
13721;DHT22;6932;51.438;5.470;2022-10-15T06:50:34;19.80;96.30
13721;DHT22;6932;51.438;5.470;2022-10-15T06:53:01;19.80;96.30
13721;DHT22;6932;51.438;5.470;2022-10-15T06:55:27;19.80;96.30
13721;DHT22;6932;51.438;5.470;2022-10-15T06:57:56;19.80;96.30
13721;DHT22;6932;51.438;5.470;2022-10-15T07:00:23;19.80;96.30
13721;DHT22;6932;51.438;5.470;2022-10-15T07:02:50;19.80;96.30
13721;DHT22;6932;51.438;5.470;2022-10-15T07:05:16;19.80;96.30
13721;DHT22;6932;51.438;5.470;2022-10-15T07:07:44;19.80;96.30
13721;DHT22;6932;51.438;5.470;2022-10-15T07:10:15;19.80;96.30
13721;DHT22;6932;51.438;5.470;2022-10-15T07:12:41;19.80;96.40
13721;DHT22;6932;51.438;5.470;2022-10-15T07:15:07;19.80;96.40
13721;DHT22;6932;51.438;5.470;2022-10-15T07:17:33;19.90;96.50
13721;DHT22;6932;51.438;5.470;2022-10-15T07:19:59;19.90;96.80
13721;DHT22;6932;51.438;5.470;2022-10-15T07:22:25;19.90;96.60
13721;DHT22;6932;51.438;5.470;2022-10-15T07:24:51;19.90;96.60
13721;DHT22;6932;51.438;5.470;2022-10-15T07:27:16;19.90;96.70
13721;DHT22;6932;51.438;5.470;2022-10-15T07:29:42;20.00;96.90
13721;DHT22;6932;51.438;5.470;2022-10-15T07:32:08;20.00;97.10
13721;DHT22;6932;51.438;5.470;2022-10-15T07:34:33;20.10;97.20
13721;DHT22;6932;51.438;5.470;2022-10-15T07:36:59;20.20;97.10
13721;DHT22;6932;51.438;5.470;2022-10-15T07:39:25;20.30;97.00
13721;DHT22;6932;51.438;5.470;2022-10-15T07:41:50;20.30;96.80
13721;DHT22;6932;51.438;5.470;2022-10-15T07:44:16;20.30;96.60
13721;DHT22;6932;51.438;5.470;2022-10-15T07:46:42;20.40;96.50
13721;DHT22;6932;51.438;5.470;2022-10-15T07:49:08;20.50;96.40
13721;DHT22;6932;51.438;5.470;2022-10-15T07:51:34;20.50;96.20
13721;DHT22;6932;51.438;5.470;2022-10-15T07:54:00;20.60;96.10
13721;DHT22;6932;51.438;5.470;2022-10-15T07:56:25;20.60;96.20
13721;DHT22;6932;51.438;5.470;2022-10-15T07:58:51;20.70;96.10
13721;DHT22;6932;51.438;5.470;2022-10-15T08:01:19;20.80;95.80
13721;DHT22;6932;51.438;5.470;2022-10-15T08:03:45;20.80;95.60
13721;DHT22;6932;51.438;5.470;2022-10-15T08:06:12;20.90;95.40
13721;DHT22;6932;51.438;5.470;2022-10-15T08:08:38;20.90;95.20
13721;DHT22;6932;51.438;5.470;2022-10-15T08:11:12;20.90;95.10
13721;DHT22;6932;51.438;5.470;2022-10-15T08:13:39;20.90;95.00
13721;DHT22;6932;51.438;5.470;2022-10-15T08:16:07;21.00;95.00
13721;DHT22;6932;51.438;5.470;2022-10-15T08:18:35;21.00;95.00
13721;DHT22;6932;51.438;5.470;2022-10-15T08:21:02;21.00;94.90
13721;DHT22;6932;51.438;5.470;2022-10-15T08:23:29;21.00;95.00
13721;DHT22;6932;51.438;5.470;2022-10-15T08:26:00;21.00;94.60
13721;DHT22;6932;51.438;5.470;2022-10-15T08:28:30;20.90;94.60
13721;DHT22;6932;51.438;5.470;2022-10-15T08:30:58;20.80;94.70
13721;DHT22;6932;51.438;5.470;2022-10-15T08:33:24;20.70;95.00
13721;DHT22;6932;51.438;5.470;2022-10-15T08:35:51;20.60;95.20
13721;DHT22;6932;51.438;5.470;2022-10-15T08:38:17;20.50;95.50
13721;DHT22;6932;51.438;5.470;2022-10-15T08:40:51;20.40;95.80
13721;DHT22;6932;51.438;5.470;2022-10-15T08:43:36;20.30;96.00
13721;DHT22;6932;51.438;5.470;2022-10-15T08:46:10;20.30;96.20
13721;DHT22;6932;51.438;5.470;2022-10-15T08:48:43;20.20;96.20
13721;DHT22;6932;51.438;5.470;2022-10-15T08:51:18;20.20;96.40
13721;DHT22;6932;51.438;5.470;2022-10-15T08:53:55;20.10;96.50
13721;DHT22;6932;51.438;5.470;2022-10-15T08:56:30;20.10;96.60
13721;DHT22;6932;51.438;5.470;2022-10-15T08:59:09;20.10;96.80
13721;DHT22;6932;51.438;5.470;2022-10-15T09:01:57;20.10;97.00
13721;DHT22;6932;51.438;5.470;2022-10-15T09:07:42;20.30;97.10
13721;DHT22;6932;51.438;5.470;2022-10-15T09:10:16;20.40;97.10
13721;DHT22;6932;51.438;5.470;2022-10-15T09:13:08;20.50;97.00
13721;DHT22;6932;51.438;5.470;2022-10-15T09:15:50;20.60;96.90
13721;DHT22;6932;51.438;5.470;2022-10-15T09:18:30;20.60;96.70
13721;DHT22;6932;51.438;5.470;2022-10-15T09:20:59;20.80;96.60
13721;DHT22;6932;51.438;5.470;2022-10-15T09:23:27;20.80;96.50
13721;DHT22;6932;51.438;5.470;2022-10-15T09:28:46;20.90;96.30
13721;DHT22;6932;51.438;5.470;2022-10-15T09:31:18;21.00;96.20
13721;DHT22;6932;51.438;5.470;2022-10-15T09:33:53;21.00;96.10
13721;DHT22;6932;51.438;5.470;2022-10-15T09:36:53;21.10;96.10
13721;DHT22;6932;51.438;5.470;2022-10-15T09:45:00;21.20;96.20
13721;DHT22;6932;51.438;5.470;2022-10-15T09:47:32;21.20;96.20
13721;DHT22;6932;51.438;5.470;2022-10-15T09:50:00;21.30;96.30
13721;DHT22;6932;51.438;5.470;2022-10-15T09:55:45;21.30;96.40
13721;DHT22;6932;51.438;5.470;2022-10-15T09:58:21;21.30;96.40
13721;DHT22;6932;51.438;5.470;2022-10-15T10:01:04;21.30;96.50
13721;DHT22;6932;51.438;5.470;2022-10-15T10:03:32;21.30;96.80
13721;DHT22;6932;51.438;5.470;2022-10-15T10:08:48;21.30;96.70
13721;DHT22;6932;51.438;5.470;2022-10-15T10:11:16;21.30;96.70
13721;DHT22;6932;51.438;5.470;2022-10-15T10:13:51;21.30;96.80
13721;DHT22;6932;51.438;5.470;2022-10-15T10:16:19;21.30;96.80
13721;DHT22;6932;51.438;5.470;2022-10-15T10:19:11;21.30;96.90
13721;DHT22;6932;51.438;5.470;2022-10-15T10:21:39;21.30;97.00
13721;DHT22;6932;51.438;5.470;2022-10-15T10:24:28;21.40;97.10
13721;DHT22;6932;51.438;5.470;2022-10-15T10:26:57;21.40;97.20
13721;DHT22;6932;51.438;5.470;2022-10-15T10:29:24;21.40;97.20
13721;DHT22;6932;51.438;5.470;2022-10-15T10:31:51;21.50;97.20
13721;DHT22;6932;51.438;5.470;2022-10-15T10:34:29;21.50;97.20
13721;DHT22;6932;51.438;5.470;2022-10-15T10:36:57;21.50;97.20
13721;DHT22;6932;51.438;5.470;2022-10-15T10:39:29;21.50;97.20
13721;DHT22;6932;51.438;5.470;2022-10-15T10:41:58;21.50;97.20
13721;DHT22;6932;51.438;5.470;2022-10-15T10:44:30;21.60;97.20
13721;DHT22;6932;51.438;5.470;2022-10-15T10:49:33;21.60;97.30
13721;DHT22;6932;51.438;5.470;2022-10-15T10:52:02;21.70;97.40
13721;DHT22;6932;51.438;5.470;2022-10-15T10:54:30;21.70;97.30
13721;DHT22;6932;51.438;5.470;2022-10-15T10:56:59;21.70;97.40
13721;DHT22;6932;51.438;5.470;2022-10-15T10:59:33;21.80;97.40
13721;DHT22;6932;51.438;5.470;2022-10-15T11:02:09;21.80;97.40
13721;DHT22;6932;51.438;5.470;2022-10-15T11:04:38;21.80;97.40
13721;DHT22;6932;51.438;5.470;2022-10-15T11:09:51;21.90;97.30
13721;DHT22;6932;51.438;5.470;2022-10-15T11:21:35;22.00;97.40
13721;DHT22;6932;51.438;5.470;2022-10-15T11:24:25;22.10;97.40
13721;DHT22;6932;51.438;5.470;2022-10-15T11:27:35;22.10;97.40
13721;DHT22;6932;51.438;5.470;2022-10-15T11:30:03;22.10;97.50
13721;DHT22;6932;51.438;5.470;2022-10-15T11:41:56;22.20;97.90
13721;DHT22;6932;51.438;5.470;2022-10-15T11:45:40;22.20;97.90
13721;DHT22;6932;51.438;5.470;2022-10-15T11:50:55;22.30;98.00
13721;DHT22;6932;51.438;5.470;2022-10-15T11:56:46;22.30;98.30
13721;DHT22;6932;51.438;5.470;2022-10-15T12:02:10;22.30;98.50
13721;DHT22;6932;51.438;5.470;2022-10-15T12:05:07;22.30;98.80
13721;DHT22;6932;51.438;5.470;2022-10-15T12:07:56;22.40;99.00
13721;DHT22;6932;51.438;5.470;2022-10-15T12:19:20;22.50;99.10
13721;DHT22;6932;51.438;5.470;2022-10-15T12:29:45;22.70;98.90
13721;DHT22;6932;51.438;5.470;2022-10-15T12:32:37;22.70;98.90
13721;DHT22;6932;51.438;5.470;2022-10-15T12:35:18;22.70;98.90
13721;DHT22;6932;51.438;5.470;2022-10-15T12:37:48;22.70;98.70
13721;DHT22;6932;51.438;5.470;2022-10-15T12:40:27;22.80;98.70
13721;DHT22;6932;51.438;5.470;2022-10-15T12:45:34;22.90;98.70
13721;DHT22;6932;51.438;5.470;2022-10-15T12:50:32;22.90;98.50
13721;DHT22;6932;51.438;5.470;2022-10-15T12:53:02;23.00;98.40
13721;DHT22;6932;51.438;5.470;2022-10-15T12:55:32;23.00;98.20
13721;DHT22;6932;51.438;5.470;2022-10-15T12:58:05;23.10;98.00
13721;DHT22;6932;51.438;5.470;2022-10-15T13:00:50;23.10;97.90
13721;DHT22;6932;51.438;5.470;2022-10-15T13:03:32;23.20;97.70
13721;DHT22;6932;51.438;5.470;2022-10-15T13:08:54;23.20;97.40
13721;DHT22;6932;51.438;5.470;2022-10-15T13:11:43;23.30;97.10
13721;DHT22;6932;51.438;5.470;2022-10-15T13:14:26;23.30;97.00
13721;DHT22;6932;51.438;5.470;2022-10-15T13:16:57;23.30;96.80
13721;DHT22;6932;51.438;5.470;2022-10-15T13:19:37;23.40;96.80
13721;DHT22;6932;51.438;5.470;2022-10-15T13:22:17;23.40;96.70
13721;DHT22;6932;51.438;5.470;2022-10-15T13:24:45;23.40;96.60
13721;DHT22;6932;51.438;5.470;2022-10-15T13:27:34;23.50;96.40
13721;DHT22;6932;51.438;5.470;2022-10-15T13:30:12;23.50;96.30
13721;DHT22;6932;51.438;5.470;2022-10-15T13:32:54;23.50;96.10
13721;DHT22;6932;51.438;5.470;2022-10-15T13:35:22;23.60;96.00
13721;DHT22;6932;51.438;5.470;2022-10-15T13:37:51;23.60;95.80
13721;DHT22;6932;51.438;5.470;2022-10-15T13:40:22;23.60;95.60
13721;DHT22;6932;51.438;5.470;2022-10-15T13:43:12;23.60;95.40
13721;DHT22;6932;51.438;5.470;2022-10-15T13:45:53;23.60;95.40
13721;DHT22;6932;51.438;5.470;2022-10-15T13:48:22;23.70;95.30
13721;DHT22;6932;51.438;5.470;2022-10-15T13:50:58;23.70;95.10
13721;DHT22;6932;51.438;5.470;2022-10-15T13:53:36;23.70;94.90
13721;DHT22;6932;51.438;5.470;2022-10-15T13:56:25;23.70;94.70
13721;DHT22;6932;51.438;5.470;2022-10-15T13:58:52;23.70;94.40
13721;DHT22;6932;51.438;5.470;2022-10-15T14:01:21;23.70;94.00
13721;DHT22;6932;51.438;5.470;2022-10-15T14:03:59;23.70;93.60
13721;DHT22;6932;51.438;5.470;2022-10-15T14:06:35;23.60;93.30
13721;DHT22;6932;51.438;5.470;2022-10-15T14:11:44;23.60;92.00
13721;DHT22;6932;51.438;5.470;2022-10-15T14:14:49;23.60;91.30
13721;DHT22;6932;51.438;5.470;2022-10-15T14:17:25;23.50;91.10
13721;DHT22;6932;51.438;5.470;2022-10-15T14:20:03;23.50;90.30
13721;DHT22;6932;51.438;5.470;2022-10-15T14:22:31;23.50;90.00
13721;DHT22;6932;51.438;5.470;2022-10-15T14:24:57;23.40;88.80
13721;DHT22;6932;51.438;5.470;2022-10-15T14:27:27;23.40;87.70
13721;DHT22;6932;51.438;5.470;2022-10-15T14:29:58;23.30;86.30
13721;DHT22;6932;51.438;5.470;2022-10-15T14:35:24;23.20;84.20
13721;DHT22;6932;51.438;5.470;2022-10-15T14:38:15;23.20;83.80
13721;DHT22;6932;51.438;5.470;2022-10-15T14:40:59;23.20;84.10
13721;DHT22;6932;51.438;5.470;2022-10-15T14:43:36;23.20;83.80
13721;DHT22;6932;51.438;5.470;2022-10-15T14:46:06;23.20;83.40
13721;DHT22;6932;51.438;5.470;2022-10-15T14:48:42;23.20;83.20
13721;DHT22;6932;51.438;5.470;2022-10-15T14:51:18;23.20;83.20
13721;DHT22;6932;51.438;5.470;2022-10-15T14:53:50;23.20;82.70
13721;DHT22;6932;51.438;5.470;2022-10-15T14:56:22;23.20;82.30
13721;DHT22;6932;51.438;5.470;2022-10-15T14:58:56;23.20;81.90
13721;DHT22;6932;51.438;5.470;2022-10-15T15:01:23;23.20;81.70
13721;DHT22;6932;51.438;5.470;2022-10-15T15:03:51;23.20;81.50
13721;DHT22;6932;51.438;5.470;2022-10-15T15:06:18;23.20;81.10
13721;DHT22;6932;51.438;5.470;2022-10-15T15:08:45;23.20;79.90
13721;DHT22;6932;51.438;5.470;2022-10-15T15:11:14;23.10;79.20
13721;DHT22;6932;51.438;5.470;2022-10-15T15:13:46;23.10;78.80
13721;DHT22;6932;51.438;5.470;2022-10-15T15:16:15;23.10;79.10
13721;DHT22;6932;51.438;5.470;2022-10-15T15:18:41;23.10;79.10
13721;DHT22;6932;51.438;5.470;2022-10-15T15:21:12;23.10;79.50
13721;DHT22;6932;51.438;5.470;2022-10-15T15:23:41;23.10;79.70
13721;DHT22;6932;51.438;5.470;2022-10-15T15:26:08;23.10;80.00
13721;DHT22;6932;51.438;5.470;2022-10-15T15:28:33;23.10;80.30
13721;DHT22;6932;51.438;5.470;2022-10-15T15:31:02;23.10;80.50
13721;DHT22;6932;51.438;5.470;2022-10-15T15:33:31;23.00;80.60
13721;DHT22;6932;51.438;5.470;2022-10-15T15:38:35;23.00;81.00
13721;DHT22;6932;51.438;5.470;2022-10-15T15:41:11;23.00;81.30
13721;DHT22;6932;51.438;5.470;2022-10-15T15:43:38;22.90;81.40
13721;DHT22;6932;51.438;5.470;2022-10-15T15:46:04;22.90;81.40
13721;DHT22;6932;51.438;5.470;2022-10-15T15:48:30;22.90;81.60
13721;DHT22;6932;51.438;5.470;2022-10-15T15:51:00;22.90;81.60
13721;DHT22;6932;51.438;5.470;2022-10-15T15:53:28;22.90;81.60
13721;DHT22;6932;51.438;5.470;2022-10-15T15:55:54;22.80;81.70
13721;DHT22;6932;51.438;5.470;2022-10-15T15:58:20;22.90;81.80
13721;DHT22;6932;51.438;5.470;2022-10-15T16:00:45;22.80;81.80
13721;DHT22;6932;51.438;5.470;2022-10-15T16:03:12;22.80;81.90
13721;DHT22;6932;51.438;5.470;2022-10-15T16:05:39;22.80;81.70
13721;DHT22;6932;51.438;5.470;2022-10-15T16:08:06;22.80;81.80
13721;DHT22;6932;51.438;5.470;2022-10-15T16:10:33;22.70;81.70
13721;DHT22;6932;51.438;5.470;2022-10-15T16:13:00;22.70;81.80
13721;DHT22;6932;51.438;5.470;2022-10-15T16:15:27;22.70;81.70
13721;DHT22;6932;51.438;5.470;2022-10-15T16:17:52;22.70;81.70
13721;DHT22;6932;51.438;5.470;2022-10-15T16:20:19;22.70;81.60
13721;DHT22;6932;51.438;5.470;2022-10-15T16:22:52;22.60;81.50
13721;DHT22;6932;51.438;5.470;2022-10-15T16:25:19;22.60;81.40
13721;DHT22;6932;51.438;5.470;2022-10-15T16:27:46;22.60;81.40
13721;DHT22;6932;51.438;5.470;2022-10-15T16:30:16;22.60;81.40
13721;DHT22;6932;51.438;5.470;2022-10-15T16:32:43;22.60;81.30
13721;DHT22;6932;51.438;5.470;2022-10-15T16:35:09;22.60;81.30
13721;DHT22;6932;51.438;5.470;2022-10-15T16:37:35;22.50;81.20
13721;DHT22;6932;51.438;5.470;2022-10-15T16:40:01;22.50;81.20
13721;DHT22;6932;51.438;5.470;2022-10-15T16:42:26;22.50;81.30
13721;DHT22;6932;51.438;5.470;2022-10-15T16:44:52;22.50;81.30
13721;DHT22;6932;51.438;5.470;2022-10-15T16:47:18;22.40;81.30
13721;DHT22;6932;51.438;5.470;2022-10-15T16:49:45;22.40;81.40
13721;DHT22;6932;51.438;5.470;2022-10-15T16:52:11;22.40;81.60
13721;DHT22;6932;51.438;5.470;2022-10-15T16:54:37;22.30;81.70
13721;DHT22;6932;51.438;5.470;2022-10-15T16:57:03;22.30;82.00
13721;DHT22;6932;51.438;5.470;2022-10-15T16:59:29;22.30;82.20
13721;DHT22;6932;51.438;5.470;2022-10-15T17:01:55;22.30;82.50
13721;DHT22;6932;51.438;5.470;2022-10-15T17:04:20;22.20;82.60
13721;DHT22;6932;51.438;5.470;2022-10-15T17:06:46;22.20;82.80
13721;DHT22;6932;51.438;5.470;2022-10-15T17:09:12;22.20;83.10
13721;DHT22;6932;51.438;5.470;2022-10-15T17:11:40;22.10;83.20
13721;DHT22;6932;51.438;5.470;2022-10-15T17:14:12;22.10;83.50
13721;DHT22;6932;51.438;5.470;2022-10-15T17:16:42;22.00;83.60
13721;DHT22;6932;51.438;5.470;2022-10-15T17:19:10;22.00;83.90
13721;DHT22;6932;51.438;5.470;2022-10-15T17:21:37;22.00;84.20
13721;DHT22;6932;51.438;5.470;2022-10-15T17:24:06;21.90;84.40
13721;DHT22;6932;51.438;5.470;2022-10-15T17:26:36;21.90;84.70
13721;DHT22;6932;51.438;5.470;2022-10-15T17:29:11;21.90;85.00
13721;DHT22;6932;51.438;5.470;2022-10-15T17:31:40;21.90;85.20
13721;DHT22;6932;51.438;5.470;2022-10-15T17:34:08;21.80;85.40
13721;DHT22;6932;51.438;5.470;2022-10-15T17:36:40;21.80;85.60
13721;DHT22;6932;51.438;5.470;2022-10-15T17:39:11;21.80;85.90
13721;DHT22;6932;51.438;5.470;2022-10-15T17:41:39;21.70;86.00
13721;DHT22;6932;51.438;5.470;2022-10-15T17:44:05;21.70;86.20
13721;DHT22;6932;51.438;5.470;2022-10-15T17:46:31;21.70;86.40
13721;DHT22;6932;51.438;5.470;2022-10-15T17:48:57;21.70;86.70
13721;DHT22;6932;51.438;5.470;2022-10-15T17:51:29;21.70;86.90